createdAt,value
2023-02-19T00:00:27.500Z,-8.40
2023-02-19T00:03:31.478Z,-8.57
2023-02-19T00:06:46.495Z,-8.93
2023-02-19T00:09:50.825Z,-9.15
2023-02-19T00:12:59.727Z,-9.46
2023-02-19T00:16:09.700Z,-9.28
2023-02-19T00:19:23.975Z,-9.30
2023-02-19T00:22:30.833Z,-9.25
2023-02-19T00:25:44.529Z,-9.57
2023-02-19T00:28:54.979Z,-9.56
2023-02-19T00:32:04.423Z,-9.89
2023-02-19T00:35:13.045Z,-9.82
2023-02-19T00:38:26.928Z,-9.90
2023-02-19T00:41:31.108Z,-10.23
2023-02-19T00:44:34.671Z,-10.26
2023-02-19T00:47:41.477Z,-10.33
2023-02-19T00:50:45.986Z,-10.18
2023-02-19T00:53:55.128Z,-10.47
2023-02-19T00:56:59.057Z,-10.45
2023-02-19T01:00:02.683Z,-10.28
2023-02-19T01:03:07.205Z,-9.93
2023-02-19T01:06:12.820Z,-10.03
2023-02-19T01:09:22.443Z,-9.80
2023-02-19T01:12:26.192Z,-10.38
2023-02-19T01:15:33.610Z,-10.25
2023-02-19T01:18:44.744Z,-10.47
2023-02-19T01:21:50.729Z,-9.74
2023-02-19T01:24:54.602Z,-10.03
2023-02-19T01:28:09.266Z,-10.07
2023-02-19T01:31:17.078Z,-9.90
2023-02-19T01:34:34.541Z,-10.46
2023-02-19T01:37:42.820Z,-10.10
2023-02-19T01:41:01.374Z,-10.15
2023-02-19T01:44:08.501Z,-10.14
2023-02-19T01:47:13.125Z,-9.48
2023-02-19T01:50:30.926Z,-9.59
2023-02-19T01:53:40.558Z,-10.43
2023-02-19T01:57:10.043Z,-10.24
2023-02-19T02:00:25.224Z,-10.45
2023-02-19T02:03:31.544Z,-10.53
2023-02-19T02:06:43.872Z,-10.15
2023-02-19T02:10:06.494Z,-9.90
2023-02-19T02:13:10.528Z,-10.15
2023-02-19T02:16:33.519Z,-10.27
2023-02-19T02:19:55.166Z,-9.93
2023-02-19T02:23:28.564Z,-10.35
2023-02-19T02:26:35.159Z,-10.43
2023-02-19T02:30:06.626Z,-10.70
2023-02-19T02:33:14.984Z,-10.80
2023-02-19T02:36:32.011Z,-10.69
2023-02-19T02:39:39.136Z,-10.29
2023-02-19T02:42:53.812Z,-10.37
2023-02-19T02:45:59.853Z,-10.02
2023-02-19T02:49:20.639Z,-9.61
2023-02-19T02:52:43.477Z,-9.46
2023-02-19T02:55:54.837Z,-10.12
2023-02-19T02:59:03.147Z,-9.43
2023-02-19T03:02:19.718Z,-9.95
2023-02-19T03:05:46.262Z,-9.61
2023-02-19T03:09:00.838Z,-9.18
2023-02-19T03:12:24.302Z,-9.04
2023-02-19T03:16:20.889Z,-9.19
2023-02-19T03:19:35.948Z,-9.78
2023-02-19T03:22:43.142Z,-9.69
2023-02-19T03:26:03.990Z,-9.87
2023-02-19T03:29:38.345Z,-9.58
2023-02-19T03:32:50.710Z,-9.25
2023-02-19T03:36:03.397Z,-9.64
2023-02-19T03:39:15.138Z,-9.84
2023-02-19T03:42:31.115Z,-9.52
2023-02-19T03:45:51.304Z,-8.99
2023-02-19T03:49:04.207Z,-9.05
2023-02-19T03:52:32.679Z,-9.59
2023-02-19T03:56:05.391Z,-8.98
2023-02-19T03:59:29.646Z,-9.58
2023-02-19T04:02:42.185Z,-8.23
2023-02-19T04:05:52.856Z,-8.03
2023-02-19T04:09:01.138Z,-8.02
2023-02-19T04:12:07.670Z,-8.39
2023-02-19T04:15:18.068Z,-7.86
2023-02-19T04:18:31.683Z,-7.49
2023-02-19T04:21:42.664Z,-7.62
2023-02-19T04:24:51.074Z,-8.44
2023-02-19T04:28:00.338Z,-8.68
2023-02-19T04:31:04.221Z,-8.14
2023-02-19T04:34:14.802Z,-7.23
2023-02-19T04:37:18.949Z,-7.29
2023-02-19T04:40:22.670Z,-7.36
2023-02-19T04:43:26.570Z,-7.18
2023-02-19T04:46:32.575Z,-7.89
2023-02-19T04:49:36.533Z,-7.15
2023-02-19T04:52:41.545Z,-7.42
2023-02-19T04:55:48.559Z,-7.77
2023-02-19T04:58:52.454Z,-7.80
2023-02-19T05:01:57.926Z,-8.01
2023-02-19T05:05:03.153Z,-7.08
2023-02-19T05:08:08.897Z,-7.11
2023-02-19T05:11:24.310Z,-6.21
2023-02-19T05:14:28.004Z,-6.99
2023-02-19T05:17:34.921Z,-6.52
2023-02-19T05:20:43.969Z,-6.23
2023-02-19T05:23:47.824Z,-6.12
2023-02-19T05:27:01.588Z,-6.26
2023-02-19T05:30:14.485Z,-6.43
2023-02-19T05:33:21.552Z,-7.03
2023-02-19T05:36:25.390Z,-6.76
2023-02-19T05:39:29.535Z,-6.41
2023-02-19T05:42:33.131Z,-6.36
2023-02-19T05:45:38.168Z,-6.23
2023-02-19T05:48:42.669Z,-6.08
2023-02-19T05:51:46.661Z,-5.03
2023-02-19T05:54:50.323Z,-4.55
2023-02-19T05:57:54.064Z,-4.98
2023-02-19T06:01:03.463Z,-6.15
2023-02-19T06:04:11.923Z,-4.50
2023-02-19T06:07:15.500Z,-3.97
2023-02-19T06:10:20.985Z,-4.24
2023-02-19T06:13:26.965Z,-4.15
2023-02-19T06:16:33.881Z,-5.02
2023-02-19T06:19:38.292Z,-4.25
2023-02-19T06:22:42.239Z,-3.82
2023-02-19T06:25:46.836Z,-3.76
2023-02-19T06:28:53.124Z,-3.71
2023-02-19T06:31:57.180Z,-3.91
2023-02-19T06:35:11.361Z,-3.35
2023-02-19T06:38:15.460Z,-2.21
2023-02-19T06:41:20.075Z,-3.04
2023-02-19T06:44:24.077Z,-2.39
2023-02-19T06:47:31.978Z,-2.46
2023-02-19T06:50:40.798Z,-2.20
2023-02-19T06:53:45.076Z,-1.90
2023-02-19T06:56:50.846Z,-2.69
2023-02-19T07:00:01.607Z,-3.29
2023-02-19T07:03:06.673Z,-1.83
2023-02-19T07:06:23.558Z,-1.57
2023-02-19T07:09:28.919Z,-0.80
2023-02-19T07:12:33.444Z,-1.11
2023-02-19T07:15:37.232Z,-1.76
2023-02-19T07:18:41.895Z,-0.32
2023-02-19T07:21:50.767Z,-0.19
2023-02-19T07:24:54.343Z,-0.39
2023-02-19T07:27:59.012Z,-0.35
2023-02-19T07:31:05.687Z,-1.25
2023-02-19T07:34:10.050Z,-0.87
2023-02-19T07:37:14.773Z,-0.41
2023-02-19T07:40:18.518Z,-0.23
2023-02-19T07:43:25.032Z,-0.45
2023-02-19T07:46:30.473Z,-0.63
2023-02-19T07:49:34.698Z,-0.63
2023-02-19T07:52:38.618Z,0.27
2023-02-19T07:55:44.042Z,-0.28
2023-02-19T07:58:48.154Z,-0.45
2023-02-19T08:02:13.333Z,0.85
2023-02-19T08:05:20.260Z,0.88
2023-02-19T08:08:24.020Z,0.70
2023-02-19T08:11:46.204Z,1.31
2023-02-19T08:14:50.832Z,0.35
2023-02-19T08:17:55.210Z,-0.12
2023-02-19T08:21:00.297Z,-0.10
2023-02-19T08:24:04.780Z,0.02
2023-02-19T08:27:09.760Z,-0.59
2023-02-19T08:30:13.672Z,-0.56
2023-02-19T08:33:20.960Z,-1.00
2023-02-19T08:36:27.949Z,-1.08
2023-02-19T08:39:34.403Z,-1.47
2023-02-19T08:42:38.317Z,-1.68
2023-02-19T08:45:56.046Z,-1.88
2023-02-19T08:49:00.183Z,-1.43
2023-02-19T08:52:03.952Z,-0.86
2023-02-19T08:55:08.108Z,-0.39
2023-02-19T08:58:23.513Z,-0.38
2023-02-19T09:01:28.917Z,-0.96
2023-02-19T09:04:32.629Z,-0.87
2023-02-19T09:07:36.817Z,0.38
2023-02-19T09:11:05.149Z,-0.39
2023-02-19T09:14:09.508Z,-0.68
2023-02-19T09:17:13.680Z,-0.66
2023-02-19T09:20:27.529Z,-0.05
2023-02-19T09:23:35.785Z,-0.28
2023-02-19T09:26:39.321Z,-0.73
2023-02-19T09:29:43.024Z,-1.66
2023-02-19T09:32:46.796Z,-0.10
2023-02-19T09:36:00.866Z,-0.69
2023-02-19T09:39:08.022Z,-1.11
2023-02-19T09:42:18.203Z,-0.74
2023-02-19T09:45:25.829Z,-1.14
2023-02-19T09:48:34.495Z,-0.80
2023-02-19T09:51:42.072Z,-1.40
2023-02-19T09:54:47.692Z,-2.03
2023-02-19T09:57:53.272Z,-2.32
2023-02-19T10:01:01.805Z,-2.59
2023-02-19T10:04:05.769Z,-1.10
2023-02-19T10:07:22.120Z,-1.12
2023-02-19T10:10:35.616Z,-1.47
2023-02-19T10:13:43.978Z,-1.19
2023-02-19T10:16:50.768Z,-2.18
2023-02-19T10:19:54.986Z,-2.51
2023-02-19T10:23:12.767Z,-3.04
2023-02-19T10:26:16.697Z,-3.12
2023-02-19T10:29:27.633Z,-2.73
2023-02-19T10:32:36.035Z,-2.04
2023-02-19T10:35:56.848Z,-3.34
2023-02-19T10:39:23.291Z,-3.80
2023-02-19T10:42:50.027Z,-2.69
2023-02-19T10:45:53.846Z,-3.79
2023-02-19T10:49:28.482Z,-3.97
2023-02-19T10:52:36.731Z,-3.67
2023-02-19T10:55:47.093Z,-3.63
2023-02-19T10:59:19.721Z,-4.29
2023-02-19T11:02:24.573Z,-4.54
2023-02-19T11:05:28.444Z,-3.81
2023-02-19T11:08:46.704Z,-3.85
2023-02-19T11:11:54.224Z,-3.55
2023-02-19T11:14:58.910Z,-4.20
2023-02-19T11:18:14.932Z,-4.54
2023-02-19T11:21:33.444Z,-4.20
2023-02-19T11:24:41.014Z,-3.82
2023-02-19T11:28:07.810Z,-3.63
2023-02-19T11:31:20.844Z,-3.62
2023-02-19T11:34:36.024Z,-4.13
2023-02-19T11:37:55.984Z,-4.25
2023-02-19T11:41:16.774Z,-4.67
2023-02-19T11:44:30.647Z,-4.55
2023-02-19T11:47:53.875Z,-4.31
2023-02-19T11:51:19.227Z,-5.51
2023-02-19T11:54:28.803Z,-4.99
2023-02-19T11:57:45.071Z,-3.85
2023-02-19T12:08:52.351Z,-3.99
2023-02-19T12:12:17.486Z,-4.90
2023-02-19T12:15:30.125Z,-5.07
2023-02-19T12:22:54.590Z,-4.91
2023-02-19T12:26:19.481Z,-4.76
2023-02-19T12:29:52.452Z,-5.43
2023-02-19T12:33:02.509Z,-5.20
2023-02-19T12:36:18.830Z,-4.89
2023-02-19T12:39:37.954Z,-5.20
2023-02-19T12:43:01.130Z,-5.39
2023-02-19T12:46:23.496Z,-5.33
2023-02-19T12:49:42.988Z,-5.62
2023-02-19T12:53:25.669Z,-5.01
2023-02-19T12:56:34.924Z,-6.04
2023-02-19T13:04:13.293Z,-5.78
2023-02-19T13:07:29.086Z,-5.40
2023-02-19T13:10:42.988Z,-6.02
2023-02-19T13:14:01.033Z,-5.24
2023-02-19T13:17:39.033Z,-4.87
2023-02-19T13:20:49.513Z,-5.32
2023-02-19T13:23:58.872Z,-5.30
2023-02-19T13:27:22.584Z,-5.57
2023-02-19T13:30:32.454Z,-4.85
2023-02-19T13:34:00.554Z,-4.85
2023-02-19T13:37:05.311Z,-5.02
2023-02-19T13:40:35.414Z,-4.73
2023-02-19T13:43:39.619Z,-4.79
2023-02-19T13:46:45.474Z,-4.67
2023-02-19T13:49:50.439Z,-5.33
2023-02-19T13:52:55.725Z,-5.19
2023-02-19T13:56:00.245Z,-4.96
2023-02-19T13:59:13.323Z,-5.49
2023-02-19T14:02:22.703Z,-5.21
2023-02-19T14:13:09.654Z,-5.63
2023-02-19T14:20:09.644Z,-4.79
2023-02-19T14:23:24.547Z,-5.20
2023-02-19T14:26:33.921Z,-4.89
2023-02-19T14:29:38.083Z,-4.42
2023-02-19T14:32:47.458Z,-4.68
2023-02-19T14:36:01.796Z,-5.08
2023-02-19T14:39:20.405Z,-4.15
2023-02-19T14:42:36.681Z,-4.08
2023-02-19T14:46:05.193Z,-4.05
2023-02-19T14:49:19.955Z,-4.83
2023-02-19T14:52:32.837Z,-4.40
2023-02-19T14:55:40.889Z,-5.38
2023-02-19T14:58:45.153Z,-4.73
2023-02-19T15:01:57.263Z,-5.19
2023-02-19T15:05:01.449Z,-5.03
2023-02-19T15:08:17.928Z,-4.08
2023-02-19T15:11:26.757Z,-4.12
2023-02-19T15:14:32.806Z,-4.28
2023-02-19T15:17:41.701Z,-4.31
2023-02-19T15:20:46.354Z,-4.27
2023-02-19T15:23:56.368Z,-3.74
2023-02-19T15:27:20.566Z,-4.15
2023-02-19T15:30:33.232Z,-4.07
2023-02-19T15:33:53.396Z,-3.67
2023-02-19T15:37:07.688Z,-3.39
2023-02-19T15:40:15.607Z,-2.90
2023-02-19T15:43:36.411Z,-3.42
2023-02-19T15:46:42.891Z,-3.74
2023-02-19T15:49:57.652Z,-3.60
2023-02-19T15:53:24.941Z,-4.22
2023-02-19T15:56:33.513Z,-4.21
2023-02-19T15:59:47.569Z,-4.77
2023-02-19T16:03:02.914Z,-4.50
2023-02-19T16:06:15.588Z,-3.29
2023-02-19T16:09:32.634Z,-4.34
2023-02-19T16:12:37.155Z,-4.63
2023-02-19T16:15:41.571Z,-4.78
2023-02-19T16:18:58.210Z,-4.43
2023-02-19T16:22:03.150Z,-4.17
2023-02-19T16:25:29.828Z,-3.86
2023-02-19T16:28:38.435Z,-4.33
2023-02-19T16:31:51.029Z,-4.13
2023-02-19T16:35:26.861Z,-4.32
2023-02-19T16:38:30.699Z,-5.01
2023-02-19T16:41:40.940Z,-4.06
2023-02-19T16:44:46.259Z,-4.20
2023-02-19T16:47:54.320Z,-4.02
2023-02-19T16:51:03.414Z,-3.47
2023-02-19T16:54:07.573Z,-4.57
2023-02-19T16:57:11.835Z,-4.07
2023-02-19T17:00:25.289Z,-4.61
2023-02-19T17:03:31.092Z,-4.23
2023-02-19T17:06:46.051Z,-5.07
2023-02-19T17:09:58.210Z,-3.95
2023-02-19T17:13:02.408Z,-3.93
2023-02-19T17:16:20.248Z,-3.68
2023-02-19T17:19:23.965Z,-4.70
2023-02-19T17:22:28.907Z,-3.89
2023-02-19T17:25:41.080Z,-4.08
2023-02-19T17:28:53.018Z,-4.29
2023-02-19T17:31:58.046Z,-3.88
2023-02-19T17:35:01.954Z,-4.68
2023-02-19T17:38:10.686Z,-3.62
2023-02-19T17:41:16.683Z,-4.47
2023-02-19T17:44:32.586Z,-4.70
2023-02-19T17:47:37.539Z,-4.13
2023-02-19T17:50:52.773Z,-3.38
2023-02-19T17:54:09.442Z,-4.25
2023-02-19T17:57:24.568Z,-3.88
2023-02-19T18:00:35.713Z,-3.97
2023-02-19T18:03:45.579Z,-5.15
2023-02-19T18:06:59.501Z,-4.51
2023-02-19T18:10:05.568Z,-4.97
2023-02-19T18:13:19.268Z,-4.28
2023-02-19T18:16:28.138Z,-4.08
2023-02-19T18:19:31.803Z,-4.28
2023-02-19T18:22:36.021Z,-4.37
2023-02-19T18:25:45.313Z,-4.28
2023-02-19T18:29:01.379Z,-4.63
2023-02-19T18:32:09.850Z,-4.50
2023-02-19T18:35:16.769Z,-4.58
2023-02-19T18:38:26.307Z,-4.98
2023-02-19T18:41:32.304Z,-5.15
2023-02-19T18:44:36.487Z,-5.20
2023-02-19T18:47:40.140Z,-4.81
2023-02-19T18:50:43.911Z,-5.13
2023-02-19T18:53:58.962Z,-5.38
2023-02-19T18:57:09.288Z,-5.03
2023-02-19T19:00:27.480Z,-5.63
2023-02-19T19:03:36.360Z,-5.09
2023-02-19T19:06:50.982Z,-5.10
2023-02-19T19:10:00.503Z,-5.04
2023-02-19T19:13:07.027Z,-5.34
2023-02-19T19:16:10.960Z,-6.25
2023-02-19T19:19:15.919Z,-5.63
2023-02-19T19:22:23.168Z,-5.59
2023-02-19T19:25:27.132Z,-6.14
2023-02-19T19:28:32.322Z,-5.34
2023-02-19T19:31:46.792Z,-4.97
2023-02-19T19:34:52.241Z,-4.82
2023-02-19T19:37:55.985Z,-5.26
2023-02-19T19:41:00.094Z,-5.12
2023-02-19T19:44:13.873Z,-5.54
2023-02-19T19:47:18.236Z,-4.84
2023-02-19T19:50:22.182Z,-5.27
2023-02-19T19:53:26.684Z,-4.38
2023-02-19T19:56:30.751Z,-5.09
2023-02-19T19:59:34.771Z,-4.50
2023-02-19T20:02:43.938Z,-4.63
2023-02-19T20:05:58.316Z,-4.95
2023-02-19T20:09:02.299Z,-4.38
2023-02-19T20:12:06.914Z,-5.30
2023-02-19T20:15:11.496Z,-5.56
2023-02-19T20:18:15.643Z,-6.04
2023-02-19T20:21:23.761Z,-5.15
2023-02-19T20:24:32.040Z,-5.44
2023-02-19T20:27:36.073Z,-5.68
2023-02-19T20:30:40.190Z,-4.63
2023-02-19T20:33:44.395Z,-4.45
2023-02-19T20:36:49.672Z,-4.93
2023-02-19T20:39:54.894Z,-5.69
2023-02-19T20:43:09.310Z,-5.51
2023-02-19T20:46:23.162Z,-5.15
2023-02-19T20:49:30.418Z,-5.76
2023-02-19T20:52:45.425Z,-6.68
2023-02-19T20:55:56.653Z,-6.28
2023-02-19T20:59:00.599Z,-6.84
2023-02-19T21:02:13.104Z,-6.95
2023-02-19T21:05:20.295Z,-7.38
2023-02-19T21:08:29.308Z,-7.47
2023-02-19T21:11:35.256Z,-7.44
2023-02-19T21:14:41.280Z,-7.63
2023-02-19T21:17:49.620Z,-7.70
2023-02-19T21:20:57.780Z,-7.85
2023-02-19T21:24:02.936Z,-7.75
2023-02-19T21:27:06.805Z,-8.21
2023-02-19T21:30:10.948Z,-7.96
2023-02-19T21:33:20.173Z,-7.71
2023-02-19T21:36:34.935Z,-7.91
2023-02-19T21:39:43.884Z,-8.26
2023-02-19T21:42:48.047Z,-8.55
2023-02-19T21:45:52.159Z,-8.81
2023-02-19T21:48:57.286Z,-8.08
2023-02-19T21:52:08.103Z,-7.93
2023-02-19T21:55:16.879Z,-8.41
2023-02-19T21:58:21.062Z,-8.93
2023-02-19T22:01:31.006Z,-8.81
2023-02-19T22:04:35.910Z,-8.61
2023-02-19T22:07:50.557Z,-9.04
2023-02-19T22:10:54.698Z,-8.85
2023-02-19T22:14:03.525Z,-9.17
2023-02-19T22:17:17.379Z,-9.31
2023-02-19T22:20:22.121Z,-8.62
2023-02-19T22:23:28.469Z,-8.96
2023-02-19T22:26:35.114Z,-9.45
2023-02-19T22:29:49.749Z,-9.32
2023-02-19T22:32:53.332Z,-9.82
2023-02-19T22:35:57.550Z,-9.94
2023-02-19T22:39:02.869Z,-10.00
2023-02-19T22:42:17.023Z,-9.47
2023-02-19T22:45:20.721Z,-10.15
2023-02-19T22:48:33.006Z,-9.52
2023-02-19T22:51:37.639Z,-9.65
2023-02-19T22:54:47.267Z,-9.36
2023-02-19T22:58:01.307Z,-9.70
2023-02-19T23:01:05.798Z,-9.90
2023-02-19T23:04:21.806Z,-10.14
2023-02-19T23:07:26.238Z,-9.52
2023-02-19T23:10:35.306Z,-9.29
2023-02-19T23:13:42.669Z,-9.09
2023-02-19T23:16:46.970Z,-9.90
2023-02-19T23:19:55.906Z,-9.58
2023-02-19T23:23:02.167Z,-9.52
2023-02-19T23:26:05.903Z,-9.79
2023-02-19T23:29:09.984Z,-9.59
2023-02-19T23:32:21.397Z,-10.10
2023-02-19T23:35:25.295Z,-9.21
2023-02-19T23:38:29.891Z,-10.36
2023-02-19T23:41:40.341Z,-9.75
2023-02-19T23:44:47.889Z,-9.31
2023-02-19T23:47:53.497Z,-9.19
2023-02-19T23:51:02.248Z,-9.48
2023-02-19T23:54:07.457Z,-9.60
2023-02-19T23:57:19.808Z,-9.96
